Site contains unofficial IBTrACS data. Visit the IBTrACS Website to access archived data.

1896 Tropical Storm NOT_NAMED (1896270N34307)


IBTrACS version v04r00. Visit IBTrACS website for data access.
Please direct all questions to the IBTrACS Q and A forum

Storm track - Intensity - Wind Radii - Intensity Data - Source Data - All data

Summary Information

Storm ID 1896270N34307
Start Sep 25 12Z
Max Intensity 60 kt (Sep 28 18Z)
End Oct 1 12Z
ATCF IDs
Track status Best track data.

Storm track plot

Map of storm track

Intensity plots

Map of storm track

Radial wind information

No radial wind information for this storm


Position and Intensity Table

BASIN ISO_TIME_________ NATURE LAT LON MLC WIND
degrees north degrees east kts
NA 1896-09-25 12:00:00 SS 33.50 -53.00 35
NA 15:00:00 SS 33.25 -52.50 37
NA 18:00:00 SS 33.00 -52.00 40
NA 21:00:00 SS 32.75 -51.50 42
NA 1896-09-26 00:00:00 SS 32.50 -51.00 45
NA 03:00:00 SS 32.25 -50.50 45
NA 06:00:00 SS 32.00 -50.00 45
NA 09:00:00 SS 31.64 -49.40 45
NA 12:00:00 TS 31.50 -49.00 45
NA 15:00:00 TS 31.89 -49.06 45
NA 18:00:00 TS 32.50 -49.30 45
NA 21:00:00 TS 33.00 -49.40 45
NA 1896-09-27 00:00:00 TS 33.50 -49.50 45
NA 03:00:00 TS 34.00 -49.65 45
NA 06:00:00 TS 34.50 -49.80 45
NA 09:00:00 TS 35.01 -49.91 45
NA 12:00:00 TS 35.50 -50.00 45
NA 15:00:00 TS 35.92 -50.11 45
NA 18:00:00 TS 36.30 -50.20 45
NA 21:00:00 TS 36.65 -50.25 45
NA 1896-09-28 00:00:00 TS 37.00 -50.30 45
NA 03:00:00 TS 37.40 -50.41 47
NA 06:00:00 TS 37.80 -50.50 50
NA 09:00:00 TS 38.16 -50.59 52
NA 12:00:00 TS 38.50 -50.50 55
NA 15:00:00 TS 38.86 -50.08 57
NA 18:00:00 TS 39.20 -49.50 60
NA 21:00:00 TS 39.51 -49.00 60
NA 1896-09-29 00:00:00 TS 39.80 -48.50 60
NA 03:00:00 TS 40.10 -48.00 57
NA 06:00:00 TS 40.40 -47.50 55
NA 09:00:00 TS 40.68 -47.03 55
NA 12:00:00 TS 41.00 -46.50 55
NA 15:00:00 TS 41.39 -45.83 55
NA 18:00:00 TS 41.80 -45.10 55
NA 21:00:00 TS 42.15 -44.39 55
NA 1896-09-30 00:00:00 ET 42.50 -43.70 55
NA 03:00:00 ET 42.90 -43.05 55
NA 06:00:00 ET 43.30 -42.40 55
NA 09:00:00 ET 43.68 -41.63 55
NA 12:00:00 ET 44.00 -41.00 55
NA 15:00:00 ET 44.22 -40.76 52
NA 18:00:00 ET 44.40 -40.70 50
NA 21:00:00 ET 44.60 -40.60 47
NA 1896-10-01 00:00:00 ET 44.80 -40.50 45
NA 03:00:00 ET 45.01 -40.35 42
NA 06:00:00 ET 45.20 -40.20 40
NA 09:00:00 ET 45.36 -40.09 35
NA 12:00:00 ET 45.50 -40.00 30

Source Information

Agency Information
USA
TOKYO
CMA
HKO
NEWDELHI
REUNION
BOM
NADI
WELLINGTON
DS824
TD9636
TD9635
NEUMANN
MLC

All available IBTrACS Data

SEASON BASIN SUBBASIN ISO_TIME_________ NATURE LAT LON DIST2LAND LANDFALL IFLAG USA SSHS MLC LAT MLC LON MLC CLASS MLC WIND STORM SPEED STORM DIR
Year degrees north degrees east km km 1 degrees north degrees east kts kts degrees
1896 NA NA 1896-09-25 12:00:00 SS 33.50 -53.00 1457 1457 _____________O -1 33.50 -53.00 SS 35 10 121
1896 NA NA 15:00:00 SS 33.25 -52.50 1481 1481 _____________P -1 33.25 -52.50 SS 37 10 121
1896 NA NA 18:00:00 SS 33.00 -52.00 1517 1517 _____________O -1 33.00 -52.00 SS 40 10 121
1896 NA NA 21:00:00 SS 32.75 -51.50 1553 1553 _____________P -1 32.75 -51.50 SS 42 10 121
1896 NA NA 1896-09-26 00:00:00 SS 32.50 -51.00 1580 1580 _____________O -1 32.50 -51.00 SS 45 10 121
1896 NA NA 03:00:00 SS 32.25 -50.50 1619 1619 _____________P -1 32.25 -50.50 SS 45 10 121
1896 NA NA 06:00:00 SS 32.00 -50.00 1647 1647 _____________O -1 32.00 -50.00 SS 45 11 123
1896 NA NA 09:00:00 SS 31.64 -49.40 1700 1700 _____________P -1 31.64 -49.40 SS 45 10 120
1896 NA NA 12:00:00 TS 31.50 -49.00 1718 1674 _____________O -1 31.50 -49.00 TS 45 4 49
1896 NA NA 15:00:00 TS 31.89 -49.06 1673 1603 _____________P -1 31.89 -49.06 TS 45 10 346
1896 NA NA 18:00:00 TS 32.50 -49.30 1603 1547 _____________O -1 32.50 -49.30 TS 45 12 345
1896 NA NA 21:00:00 TS 33.00 -49.40 1547 1490 _____________P -1 33.00 -49.40 TS 45 10 350
1896 NA NA 1896-09-27 00:00:00 TS 33.50 -49.50 1490 1434 _____________O -1 33.50 -49.50 TS 45 10 348
1896 NA NA 03:00:00 TS 34.00 -49.65 1434 1376 _____________P -1 34.00 -49.65 TS 45 10 346
1896 NA NA 06:00:00 TS 34.50 -49.80 1376 1319 _____________O -1 34.50 -49.80 TS 45 10 348
1896 NA NA 09:00:00 TS 35.01 -49.91 1319 1263 _____________P -1 35.01 -49.91 TS 45 10 351
1896 NA NA 12:00:00 TS 35.50 -50.00 1263 1217 _____________O -1 35.50 -50.00 TS 45 9 350
1896 NA NA 15:00:00 TS 35.92 -50.11 1217 1172 _____________P -1 35.92 -50.11 TS 45 8 348
1896 NA NA 18:00:00 TS 36.30 -50.20 1172 1139 _____________O -1 36.30 -50.20 TS 45 7 351
1896 NA NA 21:00:00 TS 36.65 -50.25 1137 1094 _____________P -1 36.65 -50.25 TS 45 7 354
1896 NA NA 1896-09-28 00:00:00 TS 37.00 -50.30 1094 1048 _____________O -1 37.00 -50.30 TS 45 8 351
1896 NA NA 03:00:00 TS 37.40 -50.41 1048 1003 _____________P -1 37.40 -50.41 TS 47 8 349
1896 NA NA 06:00:00 TS 37.80 -50.50 1003 968 _____________O -1 37.80 -50.50 TS 50 8 349
1896 NA NA 09:00:00 TS 38.16 -50.59 957 927 _____________P -1 38.16 -50.59 TS 52 7 0
1896 NA NA 12:00:00 TS 38.50 -50.50 927 900 _____________O -1 38.50 -50.50 TS 55 8 30
1896 NA NA 15:00:00 TS 38.86 -50.08 892 872 _____________P -1 38.86 -50.08 TS 57 10 48
1896 NA NA 18:00:00 TS 39.20 -49.50 875 856 _____________O -1 39.20 -49.50 TS 60 11 52
1896 NA NA 21:00:00 TS 39.51 -49.00 859 842 _____________P -1 39.51 -49.00 TS 60 10 52
1896 NA NA 1896-09-29 00:00:00 TS 39.80 -48.50 845 830 _____________O -1 39.80 -48.50 TS 60 10 52
1896 NA NA 03:00:00 TS 40.10 -48.00 834 822 _____________P -1 40.10 -48.00 TS 57 10 52
1896 NA NA 06:00:00 TS 40.40 -47.50 827 817 _____________O -1 40.40 -47.50 TS 55 9 52
1896 NA NA 09:00:00 TS 40.68 -47.03 822 815 _____________P -1 40.68 -47.03 TS 55 10 52
1896 NA NA 12:00:00 TS 41.00 -46.50 820 816 _____________O -1 41.00 -46.50 TS 55 11 52
1896 NA NA 15:00:00 TS 41.39 -45.83 825 822 _____________P -1 41.39 -45.83 TS 55 13 53
1896 NA NA 18:00:00 TS 41.80 -45.10 834 833 _____________O -1 41.80 -45.10 TS 55 13 55
1896 NA NA 21:00:00 TS 42.15 -44.39 856 849 _____________P -1 42.15 -44.39 TS 55 12 56
1896 NA NA 1896-09-30 00:00:00 ET 42.50 -43.70 873 873 _____________O -1 42.50 -43.70 EX 55 12 53
1896 NA NA 03:00:00 ET 42.90 -43.05 895 895 _____________P -1 42.90 -43.05 EX 55 12 50
1896 NA NA 06:00:00 ET 43.30 -42.40 915 915 _____________O -1 43.30 -42.40 EX 55 13 53
1896 NA NA 09:00:00 ET 43.68 -41.63 949 949 _____________P -1 43.68 -41.63 EX 55 12 55
1896 NA NA 12:00:00 ET 44.00 -41.00 975 975 _____________O -1 44.00 -41.00 EX 55 8 49
1896 NA NA 15:00:00 ET 44.22 -40.76 980 977 _____________P -1 44.22 -40.76 EX 52 5 28
1896 NA NA 18:00:00 ET 44.40 -40.70 977 972 _____________O -1 44.40 -40.70 EX 50 4 16
1896 NA NA 21:00:00 ET 44.60 -40.60 975 971 _____________P -1 44.60 -40.60 EX 47 4 19
1896 NA NA 1896-10-01 00:00:00 ET 44.80 -40.50 974 970 _____________O -1 44.80 -40.50 EX 45 4 23
1896 NA NA 03:00:00 ET 45.01 -40.35 973 973 _____________P -1 45.01 -40.35 EX 42 5 28
1896 NA NA 06:00:00 ET 45.20 -40.20 980 976 _____________O -1 45.20 -40.20 EX 40 4 28
1896 NA NA 09:00:00 ET 45.36 -40.09 980 980 _____________P -1 45.36 -40.09 EX 35 3 25
1896 NA NA 12:00:00 ET 45.50 -40.00 984 _____________O -1 45.50 -40.00 EX 30 3 24